createdAt,value
2019-02-28T03:07:52.372Z,17.6
2019-02-28T03:08:42.389Z,17.6
2019-02-28T03:09:32.420Z,17.6
2019-02-28T03:10:23.102Z,17.6
2019-02-28T03:11:12.506Z,17.6
2019-02-28T03:12:02.307Z,17.6
2019-02-28T03:12:52.304Z,17.6
2019-02-28T03:13:47.154Z,17.6
2019-02-28T03:14:32.234Z,17.6
2019-02-28T03:15:29.648Z,17.6
2019-02-28T03:16:12.710Z,17.6
2019-02-28T03:17:09.553Z,17.6
2019-02-28T03:17:52.699Z,17.6
2019-02-28T03:18:42.749Z,17.6
2019-02-28T03:19:38.003Z,17.7
2019-02-28T03:20:22.572Z,17.6
2019-02-28T03:21:18.556Z,17.7
2019-02-28T03:22:03.005Z,17.7
2019-02-28T03:22:52.711Z,17.6
2019-02-28T03:23:43.204Z,17.7
2019-02-28T03:24:33.130Z,17.7
2019-02-28T03:25:30.981Z,17.7
2019-02-28T03:26:13.333Z,17.7
2019-02-28T03:27:03.154Z,17.7
2019-02-28T03:27:59.565Z,17.7
2019-02-28T03:28:43.685Z,17.7
2019-02-28T03:29:33.728Z,17.7
2019-02-28T03:30:36.529Z,17.7
2019-02-28T03:31:18.656Z,17.7
2019-02-28T03:32:03.456Z,17.7
2019-02-28T03:32:54.129Z,17.7
2019-02-28T03:33:44.316Z,17.7
2019-02-28T03:34:34.124Z,17.7
2019-02-28T03:35:24.481Z,17.7
2019-02-28T03:36:19.491Z,17.7
2019-02-28T03:37:04.348Z,17.7
2019-02-28T03:37:54.315Z,17.7
2019-02-28T03:38:52.755Z,17.7
2019-02-28T03:39:33.887Z,17.7
2019-02-28T03:40:24.207Z,17.7
2019-02-28T03:41:20.984Z,17.8
2019-02-28T03:42:04.364Z,17.8
2019-02-28T03:42:54.780Z,17.8
2019-02-28T03:43:47.157Z,17.7
2019-02-28T03:44:34.758Z,17.7
2019-02-28T03:45:24.564Z,17.8
2019-02-28T03:46:14.833Z,17.8
2019-02-28T03:47:04.420Z,17.8
2019-02-28T03:48:02.898Z,17.8
2019-02-28T03:48:44.788Z,17.8
2019-02-28T03:49:34.870Z,17.8
2019-02-28T03:50:26.153Z,17.8
2019-02-28T03:51:15.273Z,17.8
2019-02-28T03:52:10.174Z,17.8
2019-02-28T03:52:55.087Z,17.8
2019-02-28T03:53:45.151Z,17.8
2019-02-28T03:54:35.517Z,17.8
2019-02-28T03:55:25.501Z,17.7
2019-02-28T03:56:18.786Z,17.8
2019-02-28T03:57:05.653Z,17.8
2019-02-28T03:57:54.876Z,17.8
2019-02-28T03:58:45.763Z,17.8
2019-02-28T03:59:35.529Z,17.8
2019-02-28T04:00:34.796Z,17.8
2019-02-28T04:01:15.796Z,17.8
2019-02-28T04:02:05.591Z,17.8
2019-02-28T04:03:01.620Z,17.8
2019-02-28T04:03:45.553Z,17.8
2019-02-28T04:04:36.163Z,17.8
2019-02-28T04:05:31.384Z,17.8
2019-02-28T04:06:16.036Z,17.8
2019-02-28T04:07:05.804Z,17.8
2019-02-28T04:07:58.122Z,17.8
2019-02-28T04:08:46.176Z,17.8
2019-02-28T04:09:35.682Z,17.8
2019-02-28T04:10:26.375Z,17.8
2019-02-28T04:11:16.379Z,17.8
2019-02-28T04:12:11.800Z,17.8
2019-02-28T04:12:56.208Z,17.8
2019-02-28T04:13:46.790Z,17.8
2019-02-28T04:14:36.739Z,17.8
2019-02-28T04:15:26.661Z,17.8
2019-02-28T04:16:16.706Z,17.8
2019-02-28T04:17:06.753Z,17.8
2019-02-28T04:17:56.308Z,17.8
2019-02-28T04:18:49.859Z,17.8
2019-02-28T04:19:36.924Z,17.8
2019-02-28T04:20:27.242Z,17.8
2019-02-28T04:21:17.302Z,17.8
2019-02-28T04:22:06.834Z,17.8
2019-02-28T04:23:03.301Z,17.8
2019-02-28T04:23:47.206Z,17.8
2019-02-28T04:24:36.964Z,17.8
2019-02-28T04:25:28.088Z,17.8
2019-02-28T04:26:17.364Z,17.8
2019-02-28T04:27:11.184Z,17.8
2019-02-28T04:27:57.493Z,17.8
2019-02-28T04:28:55.679Z,17.8
2019-02-28T04:29:37.323Z,17.8
2019-02-28T04:30:27.974Z,17.8
2019-02-28T04:31:23.330Z,17.8
2019-02-28T04:32:07.785Z,17.8
2019-02-28T04:33:04.781Z,17.8
2019-02-28T04:33:47.855Z,17.8
2019-02-28T04:34:38.199Z,17.8
2019-02-28T04:35:28.929Z,17.8
2019-02-28T04:36:18.097Z,17.8
2019-02-28T04:37:12.539Z,17.8
2019-02-28T04:37:58.454Z,17.8
2019-02-28T04:38:47.631Z,17.8
2019-02-28T04:39:37.986Z,17.8
2019-02-28T04:40:30.336Z,17.8
2019-02-28T04:41:18.406Z,17.8
2019-02-28T04:42:09.236Z,17.8
2019-02-28T04:42:58.480Z,17.8
2019-02-28T04:43:48.049Z,17.8
2019-02-28T04:44:38.591Z,17.8
2019-02-28T04:45:30.003Z,17.8
2019-02-28T04:46:18.692Z,17.8
2019-02-28T04:47:09.809Z,17.8
2019-02-28T04:47:58.329Z,17.8
2019-02-28T04:48:51.328Z,17.8
2019-02-28T04:49:38.743Z,17.8
2019-02-28T04:50:34.900Z,17.8
2019-02-28T04:51:18.563Z,17.8
2019-02-28T04:52:11.714Z,17.8
2019-02-28T04:52:59.197Z,17.8
2019-02-28T04:53:54.531Z,17.8
2019-02-28T04:54:39.543Z,17.8
2019-02-28T04:55:31.188Z,17.8
2019-02-28T04:56:19.368Z,17.8
2019-02-28T04:57:09.722Z,17.8
2019-02-28T04:57:59.785Z,17.8
2019-02-28T04:58:49.551Z,17.8
2019-02-28T04:59:39.893Z,17.8
2019-02-28T05:00:29.668Z,17.8
2019-02-28T05:01:20.005Z,17.8
2019-02-28T05:02:09.770Z,17.8
2019-02-28T05:03:00.105Z,17.8
2019-02-28T05:03:49.955Z,17.8
2019-02-28T05:04:39.987Z,17.8
2019-02-28T05:05:30.295Z,17.8
2019-02-28T05:06:24.258Z,17.8
2019-02-28T05:07:10.128Z,17.8
2019-02-28T05:08:06.960Z,17.8
2019-02-28T05:08:50.360Z,17.8
2019-02-28T05:09:39.544Z,17.8
2019-02-28T05:10:30.359Z,17.8
2019-02-28T05:11:20.732Z,17.9
2019-02-28T05:12:10.758Z,17.8
2019-02-28T05:13:00.792Z,17.8
2019-02-28T05:13:52.677Z,17.9
2019-02-28T05:14:40.152Z,17.9
2019-02-28T05:15:30.971Z,17.9
2019-02-28T05:16:20.769Z,17.9
2019-02-28T05:17:10.017Z,17.9
2019-02-28T05:18:00.034Z,17.9
2019-02-28T05:18:51.197Z,17.9
2019-02-28T05:19:41.266Z,17.9
2019-02-28T05:20:33.372Z,17.9
2019-02-28T05:21:22.939Z,17.9
2019-02-28T05:22:11.146Z,17.9
2019-02-28T05:23:05.334Z,17.9
2019-02-28T05:23:51.286Z,17.9
2019-02-28T05:24:45.855Z,17.9
2019-02-28T05:25:31.657Z,17.9
2019-02-28T05:26:27.268Z,17.9
2019-02-28T05:27:11.195Z,17.9
2019-02-28T05:28:01.274Z,17.9
2019-02-28T05:28:51.888Z,17.9
2019-02-28T05:29:45.991Z,17.9
2019-02-28T05:30:32.102Z,17.9
2019-02-28T05:31:24.112Z,17.9
2019-02-28T05:32:11.838Z,17.9
2019-02-28T05:33:02.172Z,17.9
2019-02-28T05:33:51.949Z,17.9
2019-02-28T05:34:42.024Z,17.9
2019-02-28T05:35:32.074Z,17.9
2019-02-28T05:36:22.393Z,17.9
2019-02-28T05:37:16.128Z,17.9
2019-02-28T05:38:02.529Z,17.9
2019-02-28T05:38:58.835Z,17.9
2019-02-28T05:39:44.721Z,17.9
2019-02-28T05:40:32.413Z,17.9
2019-02-28T05:41:22.759Z,17.9
2019-02-28T05:42:12.546Z,17.9
2019-02-28T05:43:02.919Z,17.9
2019-02-28T05:43:52.368Z,18
2019-02-28T05:44:43.821Z,17.9
2019-02-28T05:45:33.002Z,17.9
2019-02-28T05:46:27.513Z,17.9
2019-02-28T05:47:12.605Z,18
2019-02-28T05:48:06.491Z,17.9
2019-02-28T05:48:52.751Z,18
2019-02-28T05:49:44.363Z,18
2019-02-28T05:50:33.089Z,18
2019-02-28T05:51:27.030Z,18
2019-02-28T05:52:13.197Z,18
2019-02-28T05:53:11.247Z,18
2019-02-28T05:53:53.609Z,18
2019-02-28T05:54:43.700Z,18
2019-02-28T05:55:35.204Z,18
2019-02-28T05:56:23.190Z,18
2019-02-28T05:57:13.802Z,18
2019-02-28T05:58:03.116Z,18
2019-02-28T05:58:55.790Z,18
2019-02-28T05:59:43.977Z,18
2019-02-28T06:00:40.694Z,18
2019-02-28T06:01:24.161Z,18
2019-02-28T06:02:13.882Z,18
2019-02-28T06:03:06.007Z,18
2019-02-28T06:03:54.259Z,18
2019-02-28T06:05:51.887Z,18
2019-02-28T06:06:41.932Z,18
2019-02-28T06:07:32.714Z,18
2019-02-28T06:08:21.489Z,18
2019-02-28T06:09:17.492Z,18
2019-02-28T06:10:02.283Z,18
2019-02-28T06:10:55.715Z,18.1
2019-02-28T06:11:42.266Z,18
2019-02-28T06:12:32.027Z,18.1
2019-02-28T06:13:22.353Z,18.1
2019-02-28T06:14:12.420Z,18.1
2019-02-28T06:15:06.555Z,18
2019-02-28T06:15:52.512Z,18
2019-02-28T06:16:49.523Z,18.1
2019-02-28T06:17:32.632Z,18.1
2019-02-28T06:18:22.960Z,18.1
2019-02-28T06:19:12.745Z,18
2019-02-28T06:20:03.026Z,18.1
2019-02-28T06:20:55.262Z,18.1
2019-02-28T06:21:42.900Z,18.1
2019-02-28T06:22:38.896Z,18
2019-02-28T06:23:22.785Z,18.1
2019-02-28T06:24:16.287Z,18.1
2019-02-28T06:25:03.585Z,18.1
2019-02-28T06:26:01.276Z,18
2019-02-28T06:26:43.529Z,18.1
2019-02-28T06:27:52.019Z,18.1
2019-02-28T06:28:23.705Z,18.1
2019-02-28T06:29:13.705Z,18.1
2019-02-28T06:30:03.565Z,18.1
2019-02-28T06:30:53.814Z,18.1
2019-02-28T06:31:49.689Z,18.1
2019-02-28T06:32:33.404Z,18.1
2019-02-28T06:33:24.250Z,18.1
2019-02-28T06:34:13.801Z,18.1
2019-02-28T06:35:04.144Z,18
2019-02-28T06:35:57.161Z,18.1
2019-02-28T06:36:44.222Z,18
2019-02-28T06:37:40.216Z,18.1
2019-02-28T06:38:24.334Z,18.1
2019-02-28T06:39:13.931Z,18
2019-02-28T06:40:03.634Z,18
2019-02-28T06:40:53.666Z,18.1
2019-02-28T06:41:44.309Z,18
2019-02-28T06:42:34.339Z,18
2019-02-28T06:43:24.661Z,18.1
2019-02-28T06:44:14.738Z,18
2019-02-28T06:45:05.681Z,18
2019-02-28T06:45:54.279Z,18
2019-02-28T06:46:44.067Z,18
2019-02-28T06:47:34.704Z,18
2019-02-28T06:48:29.601Z,18
2019-02-28T06:49:15.100Z,18
2019-02-28T06:50:04.881Z,18
2019-02-28T06:50:54.664Z,18
2019-02-28T06:51:44.979Z,18
2019-02-28T06:52:35.377Z,18
2019-02-28T06:53:25.068Z,18
2019-02-28T06:54:15.134Z,18
2019-02-28T06:55:05.496Z,18
2019-02-28T06:55:55.525Z,18
2019-02-28T06:56:45.586Z,18
2019-02-28T06:57:36.490Z,18
2019-02-28T06:58:25.748Z,18
2019-02-28T06:59:15.194Z,18
2019-02-28T07:00:05.554Z,18
2019-02-28T07:00:55.901Z,18
2019-02-28T07:01:45.638Z,18
2019-02-28T07:02:34.920Z,18
2019-02-28T07:03:26.030Z,18
2019-02-28T07:05:51.863Z,18
2019-02-28T07:06:42.180Z,18
2019-02-28T07:07:31.930Z,18
2019-02-28T07:08:31.819Z,18
2019-02-28T07:09:12.318Z,18
2019-02-28T07:10:02.457Z,18
2019-02-28T07:10:52.530Z,18
2019-02-28T07:11:42.475Z,18
2019-02-28T07:12:35.980Z,18
2019-02-28T07:13:22.352Z,18
2019-02-28T07:14:16.896Z,18
2019-02-28T07:15:02.751Z,18
2019-02-28T07:15:55.476Z,18
2019-02-28T07:16:42.653Z,18
2019-02-28T07:17:32.877Z,18
2019-02-28T07:18:23.442Z,17.9
2019-02-28T07:19:12.702Z,18
2019-02-28T07:20:06.327Z,18
2019-02-28T07:20:53.145Z,18
2019-02-28T07:21:47.460Z,18
2019-02-28T07:22:32.945Z,18
2019-02-28T07:23:31.983Z,18
2019-02-28T07:24:13.329Z,18
2019-02-28T07:25:03.427Z,18
2019-02-28T07:25:55.392Z,18
2019-02-28T07:26:42.946Z,18
2019-02-28T07:27:33.546Z,18
2019-02-28T07:28:23.676Z,18
2019-02-28T07:29:15.478Z,18
2019-02-28T07:30:03.989Z,18
2019-02-28T07:30:54.537Z,17.9
2019-02-28T07:31:43.851Z,17.9
2019-02-28T07:32:37.988Z,18
2019-02-28T07:33:23.758Z,17.9
2019-02-28T07:34:19.253Z,18
2019-02-28T07:35:03.872Z,17.9
2019-02-28T07:35:54.128Z,18
2019-02-28T07:36:48.537Z,17.9
2019-02-28T07:37:34.236Z,17.9
2019-02-28T07:38:30.803Z,17.9
2019-02-28T07:39:14.110Z,18
2019-02-28T07:40:04.484Z,17.9
2019-02-28T07:40:54.474Z,17.9
2019-02-28T07:41:44.908Z,17.9
2019-02-28T07:42:41.274Z,17.9
2019-02-28T07:43:24.345Z,18
2019-02-28T07:44:14.431Z,17.9
2019-02-28T07:45:04.471Z,18
2019-02-28T07:45:55.686Z,17.9
2019-02-28T07:46:46.072Z,18
2019-02-28T07:47:34.928Z,17.9
2019-02-28T07:48:32.715Z,18
2019-02-28T07:49:14.505Z,17.9
2019-02-28T07:50:07.606Z,17.9
2019-02-28T07:50:54.623Z,17.9
2019-02-28T07:51:44.638Z,18
2019-02-28T07:52:37.091Z,17.9
2019-02-28T07:53:25.394Z,17.9
2019-02-28T07:54:21.932Z,17.9
2019-02-28T07:55:04.974Z,17.9
2019-02-28T07:55:55.505Z,17.9
2019-02-28T07:56:47.324Z,18
2019-02-28T07:57:35.313Z,17.9
2019-02-28T07:58:34.209Z,17.9
2019-02-28T07:59:15.157Z,17.9
2019-02-28T08:00:05.309Z,17.9
2019-02-28T08:00:57.060Z,17.9
2019-02-28T08:01:45.612Z,17.9
2019-02-28T08:02:42.707Z,18
2019-02-28T08:03:25.727Z,17.9
2019-02-28T08:04:22.067Z,17.9
2019-02-28T08:05:06.209Z,17.9
2019-02-28T08:05:56.159Z,17.9
2019-02-28T08:06:46.231Z,17.9
2019-02-28T08:07:36.009Z,17.9
2019-02-28T08:08:30.041Z,17.9
2019-02-28T08:09:16.093Z,17.9
2019-02-28T08:10:06.549Z,17.9
2019-02-28T08:10:56.496Z,17.9
2019-02-28T08:11:46.282Z,17.9
2019-02-28T08:12:36.621Z,17.9
2019-02-28T08:13:26.679Z,17.9
2019-02-28T08:14:16.834Z,17.9
2019-02-28T08:15:06.515Z,17.9
2019-02-28T08:16:02.821Z,17.9
2019-02-28T08:16:46.621Z,17.9
2019-02-28T08:17:45.572Z,17.9
2019-02-28T08:18:27.018Z,17.9
2019-02-28T08:19:17.068Z,17.9
2019-02-28T08:20:06.868Z,17.9
2019-02-28T08:20:57.218Z,17.9
2019-02-28T08:21:53.463Z,17.9
2019-02-28T08:22:36.753Z,17.9
2019-02-28T08:23:32.360Z,17.9
2019-02-28T08:24:17.113Z,17.9
2019-02-28T08:25:10.732Z,17.9
2019-02-28T08:25:57.266Z,17.9
2019-02-28T08:26:47.394Z,17.9
2019-02-28T08:27:37.366Z,16.2
2019-02-28T08:28:29.535Z,25.3
2019-02-28T08:29:17.733Z,53.3
2019-02-28T08:30:07.886Z,59.8
2019-02-28T08:30:59.033Z,60.9
2019-02-28T08:31:47.633Z,59.4
2019-02-28T08:32:47.339Z,56
2019-02-28T08:33:28.038Z,53.8
2019-02-28T08:34:24.989Z,52.9
2019-02-28T08:35:08.173Z,51.8
2019-02-28T08:35:58.210Z,51.1
2019-02-28T08:36:50.875Z,50.2
2019-02-28T08:37:38.310Z,49.5
2019-02-28T08:38:35.380Z,48.8
2019-02-28T08:39:19.513Z,47.9
2019-02-28T08:40:08.233Z,47.3
2019-02-28T08:40:58.540Z,46.6
2019-02-28T08:41:50.600Z,45.9
2019-02-28T08:42:42.523Z,45.1
2019-02-28T08:43:30.842Z,44.6
2019-02-28T08:44:25.557Z,44
2019-02-28T08:45:11.316Z,43.3
2019-02-28T08:45:58.900Z,42.8
2019-02-28T08:46:50.625Z,42.1
2019-02-28T08:47:39.025Z,41.7
2019-02-28T08:48:37.414Z,41.1
2019-02-28T08:49:19.119Z,40.5
2019-02-28T08:50:09.167Z,40.1
2019-02-28T08:50:59.886Z,39.5
2019-02-28T08:51:49.289Z,39.1
2019-02-28T08:52:45.209Z,38.7
2019-02-28T08:53:29.419Z,38.2
2019-02-28T08:54:19.214Z,37.8
2019-02-28T08:55:11.978Z,37.3
2019-02-28T08:55:59.109Z,36.9
2019-02-28T08:56:53.309Z,37.4
2019-02-28T08:57:39.119Z,44.3
2019-02-28T08:58:28.922Z,60.1
2019-02-28T08:59:25.834Z,64.9
2019-02-28T09:00:09.294Z,64.4
2019-02-28T09:00:59.902Z,63.1
2019-02-28T09:01:49.679Z,61.7
2019-02-28T09:02:40.034Z,60.6
2019-02-28T09:03:30.842Z,59.1
2019-02-28T09:04:20.121Z,58.1
2019-02-28T09:05:10.197Z,57.1
2019-02-28T09:06:08.769Z,56.2
2019-02-28T09:06:49.741Z,55
2019-02-28T09:07:40.366Z,54.3
2019-02-28T09:08:30.418Z,53.3
2019-02-28T09:09:20.189Z,52.6
2019-02-28T09:10:15.678Z,51.7
2019-02-28T09:11:00.583Z,50.8
2019-02-28T09:11:57.972Z,50.1
2019-02-28T09:12:40.701Z,49.2
2019-02-28T09:13:30.754Z,48.6
2019-02-28T09:14:21.449Z,47.8
2019-02-28T09:15:10.868Z,47.2
2019-02-28T09:16:06.503Z,46.6
2019-02-28T09:16:50.703Z,45.8
2019-02-28T09:17:41.015Z,45.3
2019-02-28T09:18:30.831Z,44.7
2019-02-28T09:19:20.580Z,46.1
2019-02-28T09:20:13.878Z,49.5
2019-02-28T09:21:01.267Z,60.7
2019-02-28T09:21:56.715Z,67.3
2019-02-28T09:22:40.841Z,67.2
2019-02-28T09:23:31.179Z,65.4
2019-02-28T09:24:21.210Z,63.1
2019-02-28T09:25:11.542Z,62
2019-02-28T09:26:01.336Z,61
2019-02-28T09:26:51.680Z,60.3
2019-02-28T09:27:42.725Z,59.2
2019-02-28T09:28:31.513Z,58.2
2019-02-28T09:29:25.265Z,57.3
2019-02-28T09:30:11.885Z,56.3
2019-02-28T09:31:08.689Z,55.4
2019-02-28T09:31:52.010Z,54.3
2019-02-28T09:32:41.602Z,53.6
2019-02-28T09:33:32.125Z,52.6
2019-02-28T09:35:17.889Z,51.1
2019-02-28T09:36:02.053Z,50.3
2019-02-28T09:36:59.307Z,50.1
2019-02-28T09:37:42.117Z,52.1
2019-02-28T09:38:32.489Z,59.4
2019-02-28T09:39:23.313Z,68.2
2019-02-28T09:40:12.595Z,69.3
2019-02-28T09:41:08.082Z,68.4
2019-02-28T09:41:52.679Z,65.3
2019-02-28T09:42:44.411Z,62.9
2019-02-28T09:43:32.544Z,61.3
2019-02-28T09:44:22.880Z,60.5
2019-02-28T09:45:12.654Z,59.7
2019-02-28T09:46:02.699Z,58.9
2019-02-28T09:46:54.845Z,57.7
2019-02-28T09:47:43.071Z,56.9
2019-02-28T09:48:40.192Z,56
2019-02-28T09:49:22.914Z,54.9
2019-02-28T09:50:12.954Z,54.2
2019-02-28T09:51:02.759Z,53.2
2019-02-28T09:51:53.366Z,52.5
2019-02-28T09:52:45.366Z,53.9
2019-02-28T09:53:33.228Z,58.1
2019-02-28T09:54:28.121Z,66.9
2019-02-28T09:55:13.624Z,70.1
2019-02-28T09:56:08.818Z,70.2
2019-02-28T09:56:53.796Z,67.9
2019-02-28T09:57:43.776Z,65
2019-02-28T09:58:33.561Z,61.9
2019-02-28T09:59:23.926Z,60.6
2019-02-28T10:00:15.808Z,59.4
2019-02-28T10:01:04.031Z,58.6
2019-02-28T10:02:11.036Z,58.1
2019-02-28T10:02:47.960Z,56.9
2019-02-28T10:03:35.816Z,56.3
2019-02-28T10:04:23.944Z,55.4
2019-02-28T10:06:57.364Z,65.6
2019-02-28T10:07:41.490Z,69.9
2019-02-28T10:08:38.341Z,70.3
2019-02-28T10:09:22.108Z,68.8
2019-02-28T10:10:17.395Z,66.4
2019-02-28T10:11:01.938Z,63.4
2019-02-28T10:11:51.461Z,62.7
2019-02-28T10:12:45.845Z,63.2
2019-02-28T10:13:34.264Z,64.8
2019-02-28T10:14:21.693Z,66.1
2019-02-28T10:15:12.625Z,66.8
2019-02-28T10:16:01.535Z,66.8
2019-02-28T10:16:56.320Z,66.3
2019-02-28T10:17:44.685Z,65.5
2019-02-28T10:18:38.738Z,65
2019-02-28T10:19:24.777Z,65
2019-02-28T10:20:12.577Z,65.3
2019-02-28T10:21:05.410Z,65.8
2019-02-28T10:21:55.700Z,66.1
2019-02-28T10:22:49.142Z,66.3
2019-02-28T10:23:32.777Z,66.3
2019-02-28T10:24:25.113Z,66.1
2019-02-28T10:25:13.166Z,66
2019-02-28T10:26:03.259Z,66
2019-02-28T10:26:55.507Z,66.1
2019-02-28T10:27:43.082Z,66.3
2019-02-28T10:28:33.443Z,66.6
2019-02-28T10:29:23.464Z,66.7
2019-02-28T10:30:31.022Z,66.8
2019-02-28T10:31:03.298Z,66.8
2019-02-28T10:31:53.632Z,66.8
2019-02-28T10:32:46.982Z,66.8
2019-02-28T10:33:33.759Z,66.8
2019-02-28T10:34:29.715Z,66.9
2019-02-28T10:35:13.605Z,66.9
2019-02-28T10:36:03.644Z,66.9
2019-02-28T10:36:53.974Z,67.1
2019-02-28T10:37:44.022Z,67.1
2019-02-28T10:38:36.819Z,67.1
2019-02-28T10:39:23.899Z,67.1
2019-02-28T10:40:20.636Z,67.1
2019-02-28T10:41:04.281Z,67.2
2019-02-28T10:41:54.331Z,67.3
2019-02-28T10:42:44.887Z,67.3
2019-02-28T10:43:34.424Z,67.4
2019-02-28T10:44:30.660Z,67.4
2019-02-28T10:45:13.984Z,67.5
2019-02-28T10:46:04.346Z,67.5
2019-02-28T10:46:57.896Z,67.6
2019-02-28T10:47:44.436Z,67.7
2019-02-28T10:48:52.326Z,67.7
2019-02-28T10:49:28.226Z,67.8
2019-02-28T10:50:14.902Z,67.8
2019-02-28T10:51:17.263Z,67.8
2019-02-28T10:51:54.165Z,67.9
2019-02-28T10:52:45.116Z,67.9
2019-02-28T10:53:40.768Z,67.9
2019-02-28T10:54:25.218Z,67.9
2019-02-28T10:55:15.283Z,67.9
2019-02-28T10:56:05.290Z,67.9
2019-02-28T10:56:55.343Z,67.9
2019-02-28T10:57:45.395Z,67.8
2019-02-28T10:58:35.175Z,67.9
2019-02-28T10:59:28.147Z,67.9
2019-02-28T11:00:15.278Z,68.1
2019-02-28T11:01:11.900Z,68.1
2019-02-28T11:01:55.690Z,68
2019-02-28T11:02:45.732Z,68
2019-02-28T11:03:36.683Z,67.9
2019-02-28T11:04:27.515Z,67.9
2019-02-28T11:05:22.158Z,68
2019-02-28T11:06:06.079Z,68.1
2019-02-28T11:06:56.020Z,68.1
2019-02-28T11:07:48.133Z,68.2
2019-02-28T11:08:36.147Z,68.1
2019-02-28T11:09:28.892Z,68.1
2019-02-28T11:10:16.269Z,68
2019-02-28T11:11:12.745Z,67.9
2019-02-28T11:11:56.377Z,67.9
2019-02-28T11:12:46.451Z,67.9
2019-02-28T11:13:36.209Z,67.9
2019-02-28T11:14:26.300Z,67.9
2019-02-28T11:15:17.829Z,67.9
2019-02-28T11:16:06.391Z,67.8
2019-02-28T11:17:03.297Z,67.8
2019-02-28T11:17:48.074Z,67.8
2019-02-28T11:18:38.372Z,67.7
2019-02-28T11:19:26.599Z,67.7
2019-02-28T11:20:29.357Z,67.7
2019-02-28T11:21:06.716Z,67.7
2019-02-28T11:21:57.044Z,67.7
2019-02-28T11:22:46.834Z,67.7
2019-02-28T11:23:36.885Z,67.8
2019-02-28T11:24:30.526Z,67.7
2019-02-28T11:25:17.026Z,67.8
2019-02-28T11:26:13.427Z,67.8
2019-02-28T11:26:58.996Z,67.8
2019-02-28T11:27:46.625Z,67.8
2019-02-28T11:28:37.496Z,67.8
2019-02-28T11:29:27.291Z,67.8
2019-02-28T11:30:17.369Z,67.8
2019-02-28T11:31:07.689Z,67.8
2019-02-28T11:32:00.500Z,67.8
2019-02-28T11:32:47.791Z,67.8
2019-02-28T11:33:43.126Z,67.7
2019-02-28T11:34:27.946Z,67.7
2019-02-28T11:35:23.978Z,67.8
2019-02-28T11:36:09.651Z,67.8
2019-02-28T11:36:57.811Z,67.8
2019-02-28T11:37:49.219Z,67.8
2019-02-28T11:38:37.917Z,67.8
2019-02-28T11:39:36.529Z,67.8
2019-02-28T11:40:18.295Z,67.7
2019-02-28T11:41:08.353Z,67.7
2019-02-28T11:42:00.288Z,67.6
2019-02-28T11:42:48.501Z,67.6
2019-02-28T11:43:41.670Z,67.6
2019-02-28T11:44:28.313Z,67.6
2019-02-28T11:45:27.942Z,67.6
2019-02-28T11:46:08.703Z,67.5
2019-02-28T11:46:58.212Z,67.4
2019-02-28T11:47:48.603Z,67.4
2019-02-28T11:48:38.900Z,67.4
2019-02-28T11:49:32.397Z,67.4
2019-02-28T11:50:18.982Z,67.3
2019-02-28T11:51:08.786Z,67.3
2019-02-28T11:51:59.102Z,67.2
2019-02-28T11:52:48.958Z,67.2
2019-02-28T11:53:43.234Z,67.2
2019-02-28T11:54:28.984Z,67.1
2019-02-28T11:55:24.007Z,67.1
2019-02-28T11:56:08.832Z,67
2019-02-28T11:57:08.181Z,67
2019-02-28T11:57:49.232Z,66.9
2019-02-28T11:58:39.566Z,66.9
2019-02-28T11:59:29.329Z,66.8
2019-02-28T12:00:19.672Z,66.8
2019-02-28T12:01:13.782Z,66.8
2019-02-28T12:01:59.789Z,66.8
2019-02-28T12:03:05.418Z,66.7
2019-02-28T12:03:40.069Z,66.7
2019-02-28T12:04:29.944Z,66.6
2019-02-28T12:06:53.756Z,66.6
2019-02-28T12:07:41.891Z,66.5
2019-02-28T12:08:31.964Z,66.5
2019-02-28T12:09:23.389Z,66.4
2019-02-28T12:10:12.084Z,66.4
2019-02-28T12:11:05.821Z,66.4
2019-02-28T12:11:52.196Z,66.4
2019-02-28T12:12:48.342Z,66.4
2019-02-28T12:13:32.327Z,66.4
2019-02-28T12:14:21.847Z,66.3
2019-02-28T12:15:12.418Z,66.3
2019-02-28T12:16:02.467Z,66.3
2019-02-28T12:16:56.452Z,66.3
2019-02-28T12:17:42.293Z,66.3
2019-02-28T12:18:32.732Z,66.3
2019-02-28T12:19:22.146Z,66.2
2019-02-28T12:20:12.787Z,66.2
2019-02-28T12:21:07.900Z,66.1
2019-02-28T12:21:52.587Z,66.1
2019-02-28T12:22:51.868Z,66.1
2019-02-28T12:23:32.162Z,66
2019-02-28T12:24:23.043Z,65.9
2019-02-28T12:25:13.096Z,65.6
2019-02-28T12:26:03.184Z,64.8
2019-02-28T12:26:56.691Z,63.6
2019-02-28T12:27:43.291Z,62.4
2019-02-28T12:28:39.127Z,61.5
2019-02-28T12:29:23.416Z,60.4
2019-02-28T12:30:12.865Z,59.5
2019-02-28T12:31:04.171Z,58.4
2019-02-28T12:31:52.996Z,57.6
2019-02-28T12:32:47.554Z,56.8
2019-02-28T12:33:33.106Z,55.8
2019-02-28T12:34:23.735Z,55.1
2019-02-28T12:35:13.237Z,54.2
2019-02-28T12:36:03.560Z,53.5
2019-02-28T12:36:53.639Z,52.6
2019-02-28T12:37:43.690Z,52
2019-02-28T12:38:34.037Z,51.3
2019-02-28T12:39:25.802Z,50.6
2019-02-28T12:40:14.594Z,54.9
2019-02-28T12:41:04.187Z,59.9
2019-02-28T12:41:59.481Z,67.9
2019-02-28T12:42:44.032Z,69.8
2019-02-28T12:43:34.405Z,69.2
2019-02-28T12:44:23.859Z,66.8
2019-02-28T12:45:14.536Z,65.4
2019-02-28T12:46:04.557Z,64.4
2019-02-28T12:46:54.312Z,63.8
2019-02-28T12:47:46.591Z,62.9
2019-02-28T12:48:34.441Z,61.9
2019-02-28T12:49:30.159Z,60.9
2019-02-28T12:50:14.829Z,59.8
2019-02-28T12:51:09.120Z,58.9
2019-02-28T12:51:54.645Z,57.9
2019-02-28T12:52:50.357Z,57.1
2019-02-28T12:53:36.085Z,56.1
2019-02-28T12:54:26.997Z,55.4
2019-02-28T12:55:14.887Z,54.4
2019-02-28T12:56:05.201Z,53.8
2019-02-28T12:56:55.274Z,52.9
2019-02-28T12:57:45.339Z,52.3
2019-02-28T12:58:44.612Z,51.4
2019-02-28T12:59:25.480Z,50.7
2019-02-28T13:00:15.496Z,50.1
2019-02-28T13:01:05.621Z,49.4
2019-02-28T13:01:55.378Z,48.9
2019-02-28T13:02:49.397Z,48.2
2019-02-28T13:03:35.764Z,47.6
2019-02-28T13:04:25.844Z,47.1
2019-02-28T13:05:19.170Z,46.4
2019-02-28T13:06:05.673Z,45.9
2019-02-28T13:07:02.493Z,45.4
2019-02-28T13:07:46.023Z,44.9
2019-02-28T13:08:38.589Z,44.4
2019-02-28T13:09:25.838Z,43.9
2019-02-28T13:10:16.223Z,43.5
2019-02-28T13:11:07.293Z,42.9
2019-02-28T13:11:56.300Z,42.6
2019-02-28T13:12:52.775Z,42.2
2019-02-28T13:13:36.467Z,41.6
2019-02-28T13:14:26.336Z,41.4
2019-02-28T13:15:17.035Z,40.9
2019-02-28T13:16:06.574Z,40.5
2019-02-28T13:17:00.928Z,40.2
2019-02-28T13:17:46.732Z,39.8
2019-02-28T13:18:39.481Z,39.4
2019-02-28T13:19:26.560Z,39.1
2019-02-28T13:20:16.627Z,38.8
2019-02-28T13:21:14.684Z,38.4
2019-02-28T13:21:57.005Z,38.1
2019-02-28T13:22:46.611Z,37.8
2019-02-28T13:23:37.267Z,37.4
2019-02-28T13:24:27.164Z,37.2
2019-02-28T13:25:24.948Z,36.9
2019-02-28T13:26:07.264Z,36.6
2019-02-28T13:26:57.092Z,36.3
2019-02-28T13:27:50.772Z,36.1
2019-02-28T13:28:37.496Z,35.8
2019-02-28T13:29:34.962Z,35.5
2019-02-28T13:30:17.686Z,35.3
2019-02-28T13:31:07.665Z,35
2019-02-28T13:32:05.131Z,34.8
2019-02-28T13:32:47.741Z,34.4
2019-02-28T13:33:37.894Z,34.3
2019-02-28T13:34:32.954Z,34
2019-02-28T13:35:17.411Z,33.8
2019-02-28T13:36:07.944Z,33.6
2019-02-28T13:37:05.999Z,33.4
2019-02-28T13:37:48.434Z,33.1
2019-02-28T13:38:37.869Z,33
2019-02-28T13:39:35.299Z,32.8
2019-02-28T13:40:18.292Z,32.6
2019-02-28T13:41:08.192Z,32.4
2019-02-28T13:42:06.563Z,32.2
2019-02-28T13:42:48.449Z,32
2019-02-28T13:43:38.577Z,31.9
2019-02-28T13:44:36.246Z,31.7
2019-02-28T13:45:26.911Z,31.5
2019-02-28T13:46:08.696Z,31.3
2019-02-28T13:46:58.733Z,31.2
2019-02-28T13:47:50.573Z,31
2019-02-28T13:48:38.830Z,30.9
2019-02-28T13:49:28.626Z,30.7
2019-02-28T13:50:29.006Z,30.5
2019-02-28T13:51:11.948Z,30.4
2019-02-28T13:51:59.115Z,30.3
2019-02-28T13:52:53.327Z,30.1
2019-02-28T13:53:38.341Z,29.9
2019-02-28T13:54:30.438Z,29.8
2019-02-28T13:55:23.111Z,29.6
2019-02-28T13:56:09.081Z,29.5
2019-02-28T13:56:59.520Z,29.4
2019-02-28T13:57:50.490Z,29.3
2019-02-28T13:58:39.329Z,29.2
2019-02-28T13:59:35.161Z,29
2019-02-28T14:00:19.715Z,28.9
2019-02-28T14:01:09.401Z,28.8
2019-02-28T14:01:59.805Z,28.7
2019-02-28T14:02:49.825Z,28.6
2019-02-28T14:03:47.457Z,28.4
2019-02-28T14:04:29.897Z,28.3
2019-02-28T14:05:19.722Z,28.3
2019-02-28T14:07:51.215Z,27.9
2019-02-28T14:09:31.861Z,27.7
2019-02-28T14:10:21.966Z,27.6
2019-02-28T14:11:14.039Z,27.5
2019-02-28T14:12:02.060Z,27.4
2019-02-28T14:12:59.722Z,27.3
2019-02-28T14:13:41.857Z,27.2
2019-02-28T14:14:32.244Z,27.1
2019-02-28T14:15:22.307Z,27.1
2019-02-28T14:16:12.342Z,27
2019-02-28T14:17:05.032Z,26.9
2019-02-28T14:17:52.424Z,26.8
2019-02-28T14:18:48.346Z,26.7
2019-02-28T14:19:32.548Z,26.6
2019-02-28T14:20:28.875Z,26.5
2019-02-28T14:21:12.648Z,26.4
2019-02-28T14:22:02.229Z,26.4
2019-02-28T14:22:52.511Z,26.3
2019-02-28T14:23:42.889Z,26.3
2019-02-28T14:24:34.971Z,26.1
2019-02-28T14:25:22.949Z,26.1
2019-02-28T14:26:17.504Z,26
2019-02-28T14:27:03.066Z,25.9
2019-02-28T14:27:52.846Z,25.9
2019-02-28T14:28:42.931Z,25.8
2019-02-28T14:29:32.960Z,25.8
2019-02-28T14:30:26.576Z,25.6